createdAt,value
2023-04-02T00:00:10.778Z,101365.63
2023-04-02T00:02:58.793Z,101363.97
2023-04-02T00:05:30.440Z,101370.03
2023-04-02T00:08:00.252Z,101371.78
2023-04-02T00:10:37.827Z,101378.75
2023-04-02T00:13:06.817Z,101378.75
2023-04-02T00:15:34.598Z,101387.44
2023-04-02T00:18:02.601Z,101390.13
2023-04-02T00:20:32.163Z,101384.94
2023-04-02T00:22:58.890Z,101394.53
2023-04-02T00:25:28.113Z,101394.59
2023-04-02T00:27:55.892Z,101403.19
2023-04-02T00:30:22.713Z,101392.88
2023-04-02T00:32:49.482Z,101398.94
2023-04-02T00:35:23.275Z,101410.22
2023-04-02T00:37:50.495Z,101416.16
2023-04-02T00:40:22.747Z,101412.81
2023-04-02T00:42:50.241Z,101426.59
2023-04-02T00:45:23.242Z,101424.91
2023-04-02T00:47:50.575Z,101437.03
2023-04-02T00:50:31.942Z,101444.88
2023-04-02T00:53:04.256Z,101444.94
2023-04-02T00:55:39.781Z,101448.38
2023-04-02T00:58:29.970Z,101458.72
2023-04-02T01:00:56.762Z,101453.53
2023-04-02T01:03:23.618Z,101459.69
2023-04-02T01:05:56.118Z,101474.44
2023-04-02T01:09:02.567Z,101472.66
2023-04-02T01:11:53.754Z,101474.44
2023-04-02T01:14:51.499Z,101479.72
2023-04-02T01:17:30.561Z,101483.13
2023-04-02T01:20:19.050Z,101490.84
2023-04-02T01:23:06.643Z,101499.53
2023-04-02T01:25:57.942Z,101504.69
2023-04-02T01:28:35.291Z,101503.91
2023-04-02T01:31:03.666Z,101503.16
2023-04-02T01:33:33.846Z,101509.22
2023-04-02T01:36:14.795Z,101512.66
2023-04-02T01:38:50.914Z,101522.16
2023-04-02T01:41:28.664Z,101521.28
2023-04-02T01:44:09.932Z,101523.03
2023-04-02T01:46:42.296Z,101536.03
2023-04-02T01:49:15.852Z,101541.28
2023-04-02T01:51:45.473Z,101535.34
2023-04-02T01:54:16.401Z,101546.59
2023-04-02T01:56:45.021Z,101548.34
2023-04-02T01:59:12.403Z,101557.84
2023-04-02T02:01:45.193Z,101570.78
2023-04-02T02:04:16.498Z,101564.00
2023-04-02T02:06:44.191Z,101576.94
2023-04-02T02:09:17.857Z,101580.41
2023-04-02T02:11:44.327Z,101583.03
2023-04-02T02:14:23.180Z,101587.41
2023-04-02T02:16:50.129Z,101591.81
2023-04-02T02:19:45.331Z,101590.22
2023-04-02T02:22:29.689Z,101603.22
2023-04-02T02:24:59.228Z,101612.78
2023-04-02T02:27:26.019Z,101620.66
2023-04-02T02:30:02.207Z,101616.41
2023-04-02T02:32:31.224Z,101618.28
2023-04-02T02:35:07.878Z,101628.72
2023-04-02T02:37:43.307Z,101632.22
2023-04-02T02:40:35.458Z,101631.44
2023-04-02T02:43:08.432Z,101634.03
2023-04-02T02:45:38.997Z,101640.94
2023-04-02T02:48:10.556Z,101643.59
2023-04-02T02:50:37.672Z,101644.47
2023-04-02T02:53:07.740Z,101653.97
2023-04-02T02:55:37.655Z,101660.00
2023-04-02T02:58:32.799Z,101670.28
2023-04-02T03:00:59.669Z,101676.38
2023-04-02T03:03:32.714Z,101677.31
2023-04-02T03:06:07.184Z,101680.75
2023-04-02T03:08:42.028Z,101689.44
2023-04-02T03:11:26.507Z,101697.25
2023-04-02T03:14:00.894Z,101695.59
2023-04-02T03:16:34.480Z,101701.63
2023-04-02T03:19:33.767Z,101711.06
2023-04-02T03:22:20.642Z,101709.38
2023-04-02T03:25:03.570Z,101720.59
2023-04-02T03:27:32.790Z,101725.03
2023-04-02T03:30:14.163Z,101734.56
2023-04-02T03:32:44.013Z,101733.69
2023-04-02T03:35:41.066Z,101740.56
2023-04-02T03:38:16.346Z,101753.50
2023-04-02T03:40:52.897Z,101762.16
2023-04-02T03:43:26.367Z,101757.03
2023-04-02T03:46:05.323Z,101763.09
2023-04-02T03:48:44.749Z,101765.72
2023-04-02T03:51:20.431Z,101789.81
2023-04-02T03:53:48.704Z,101784.66
2023-04-02T03:56:39.510Z,101782.97
2023-04-02T03:59:16.401Z,101786.38
2023-04-02T04:01:59.107Z,101786.44
2023-04-02T04:04:28.703Z,101802.78
2023-04-02T04:06:57.301Z,101805.34
2023-04-02T04:09:29.630Z,101810.53
2023-04-02T04:12:18.045Z,101819.16
2023-04-02T04:14:51.202Z,101830.44
2023-04-02T04:17:51.556Z,101839.13
2023-04-02T04:20:41.056Z,101830.59
2023-04-02T04:23:30.130Z,101849.53
2023-04-02T04:26:19.824Z,101847.81
2023-04-02T04:28:59.733Z,101855.59
2023-04-02T04:31:47.125Z,101865.13
2023-04-02T04:34:32.315Z,101870.31
2023-04-02T04:37:07.799Z,101881.53
2023-04-02T04:39:45.474Z,101882.50
2023-04-02T04:42:25.626Z,101885.06
2023-04-02T04:45:21.740Z,101897.16
2023-04-02T04:47:54.681Z,101901.41
2023-04-02T04:50:39.123Z,101906.59
2023-04-02T04:53:08.384Z,101912.66
2023-04-02T04:55:38.653Z,101913.59
2023-04-02T04:58:11.244Z,101924.88
2023-04-02T05:00:50.923Z,101926.66
2023-04-02T05:03:27.781Z,101933.56
2023-04-02T05:05:54.329Z,101942.19
2023-04-02T05:08:30.501Z,101946.56
2023-04-02T05:11:13.263Z,101957.88
2023-04-02T05:13:53.522Z,101973.44
2023-04-02T05:16:33.375Z,101970.09
2023-04-02T05:19:16.848Z,101993.41
2023-04-02T05:22:09.034Z,101990.91
2023-04-02T05:24:38.340Z,101996.97
2023-04-02T05:27:34.844Z,102000.41
2023-04-02T05:30:11.412Z,102003.88
2023-04-02T05:32:45.963Z,102013.38
2023-04-02T05:35:18.899Z,102022.88
2023-04-02T05:37:46.721Z,102021.19
2023-04-02T05:40:21.642Z,102033.25
2023-04-02T05:42:52.920Z,102029.84
2023-04-02T05:45:25.918Z,102046.22
2023-04-02T05:48:00.158Z,102044.50
2023-04-02T05:50:30.377Z,102048.81
2023-04-02T05:53:04.428Z,102054.81
2023-04-02T05:55:37.444Z,102067.69
2023-04-02T05:58:34.523Z,102069.44
2023-04-02T06:01:29.477Z,102074.59
2023-04-02T06:04:07.221Z,102083.19
2023-04-02T06:06:46.680Z,102084.91
2023-04-02T06:09:27.757Z,102090.94
2023-04-02T06:12:04.650Z,102102.06
2023-04-02T06:14:31.134Z,102114.94
2023-04-02T06:16:57.716Z,102119.22
2023-04-02T06:19:31.076Z,102123.50
2023-04-02T06:22:10.688Z,102136.38
2023-04-02T06:24:40.413Z,102132.94
2023-04-02T06:27:10.161Z,102145.78
2023-04-02T06:29:41.615Z,102159.53
2023-04-02T06:32:11.207Z,102150.97
2023-04-02T06:34:41.079Z,102158.69
2023-04-02T06:37:38.128Z,102159.59
2023-04-02T06:40:14.509Z,102163.00
2023-04-02T06:42:43.579Z,102175.88
2023-04-02T06:45:23.960Z,102182.78
2023-04-02T06:47:52.106Z,102177.63
2023-04-02T06:50:32.789Z,102175.88
2023-04-02T06:53:09.627Z,102189.63
2023-04-02T06:55:52.656Z,102184.47
2023-04-02T06:58:20.615Z,102194.78
2023-04-02T07:00:50.444Z,102199.03
2023-04-02T07:03:24.647Z,102208.47
2023-04-02T07:05:51.678Z,102217.09
2023-04-02T07:08:18.302Z,102227.34
2023-04-02T07:10:44.866Z,102229.06
2023-04-02T07:13:16.686Z,102239.38
2023-04-02T07:15:45.759Z,102241.09
2023-04-02T07:18:28.213Z,102247.13
2023-04-02T07:20:55.552Z,102252.28
2023-04-02T07:23:22.080Z,102259.13
2023-04-02T07:25:50.389Z,102260.84
2023-04-02T07:28:17.291Z,102272.88
2023-04-02T07:30:44.549Z,102283.16
2023-04-02T07:33:14.270Z,102285.75
2023-04-02T07:35:41.284Z,102288.38
2023-04-02T07:38:07.955Z,102294.38
2023-04-02T07:40:34.464Z,102292.66
2023-04-02T07:43:01.051Z,102301.28
2023-04-02T07:45:27.579Z,102301.25
2023-04-02T07:47:54.333Z,102308.09
2023-04-02T07:50:20.986Z,102300.38
2023-04-02T07:52:47.412Z,102311.53
2023-04-02T07:55:16.460Z,102312.38
2023-04-02T07:57:57.730Z,102314.97
2023-04-02T08:00:25.684Z,102314.09
2023-04-02T08:02:52.878Z,102318.38
2023-04-02T08:05:19.842Z,102319.22
2023-04-02T08:07:56.883Z,102325.25
2023-04-02T08:10:24.528Z,102334.72
2023-04-02T08:12:51.223Z,102341.56
2023-04-02T08:15:17.859Z,102339.84
2023-04-02T08:17:46.423Z,102342.47
2023-04-02T08:20:18.407Z,102349.31
2023-04-02T08:22:45.995Z,102341.56
2023-04-02T08:25:12.750Z,102351.88
2023-04-02T08:27:39.440Z,102351.88
2023-04-02T08:30:07.782Z,102359.66
2023-04-02T08:32:34.646Z,102369.94
2023-04-02T08:35:01.519Z,102382.81
2023-04-02T08:37:28.110Z,102384.50
2023-04-02T08:39:54.549Z,102390.50
2023-04-02T08:42:49.230Z,102392.19
2023-04-02T08:45:25.723Z,102396.47
2023-04-02T08:47:56.581Z,102399.91
2023-04-02T08:50:32.832Z,102405.06
2023-04-02T08:53:02.184Z,102409.34
2023-04-02T08:55:55.774Z,102427.44
2023-04-02T08:58:43.259Z,102424.00
2023-04-02T09:01:32.822Z,102429.19
2023-04-02T09:03:59.672Z,102426.56
2023-04-02T09:06:29.182Z,102434.31
2023-04-02T09:08:57.409Z,102445.53
2023-04-02T09:11:32.486Z,102438.59
2023-04-02T09:14:03.104Z,102452.34
2023-04-02T09:16:48.079Z,102443.75
2023-04-02T09:19:23.079Z,102451.50
2023-04-02T09:22:14.370Z,102456.63
2023-04-02T09:24:41.014Z,102462.63
2023-04-02T09:27:22.653Z,102466.88
2023-04-02T09:29:53.916Z,102466.91
2023-04-02T09:32:46.130Z,102470.34
2023-04-02T09:35:25.676Z,102481.53
2023-04-02T09:38:11.524Z,102490.19
2023-04-02T09:40:53.860Z,102497.97
2023-04-02T09:43:23.144Z,102497.09
2023-04-02T09:45:57.589Z,102497.97
2023-04-02T09:48:40.785Z,102485.91
2023-04-02T09:51:13.648Z,102493.66
2023-04-02T09:53:43.693Z,102487.59
2023-04-02T09:56:29.340Z,102484.94
2023-04-02T09:59:02.530Z,102489.16
2023-04-02T10:01:34.522Z,102497.69
2023-04-02T10:04:04.418Z,102506.19
2023-04-02T10:06:32.763Z,102506.06
2023-04-02T10:09:20.135Z,102509.34
2023-04-02T10:11:49.578Z,102514.41
2023-04-02T10:14:20.000Z,102503.94
2023-04-02T10:16:58.058Z,102510.69
2023-04-02T10:19:40.778Z,102514.88
2023-04-02T10:22:15.717Z,102526.00
2023-04-02T10:24:42.358Z,102516.47
2023-04-02T10:27:17.850Z,102518.19
2023-04-02T10:30:02.379Z,102517.22
2023-04-02T10:32:29.023Z,102521.44
2023-04-02T10:35:08.767Z,102520.47
2023-04-02T10:37:44.138Z,102526.47
2023-04-02T10:40:36.726Z,102534.31
2023-04-02T10:43:35.975Z,102529.91
2023-04-02T10:46:05.727Z,102530.75
2023-04-02T10:49:01.354Z,102533.25
2023-04-02T10:51:59.335Z,102533.09
2023-04-02T10:54:32.913Z,102527.88
2023-04-02T10:57:28.608Z,102532.06
2023-04-02T11:00:17.157Z,102525.78
2023-04-02T11:03:02.764Z,102534.34
2023-04-02T11:05:43.782Z,102536.00
2023-04-02T11:08:41.175Z,102546.38
2023-04-02T11:11:14.444Z,102559.19
2023-04-02T11:13:43.971Z,102547.91
2023-04-02T11:16:15.363Z,102540.94
2023-04-02T11:18:42.749Z,102564.09
2023-04-02T11:21:57.954Z,102563.19
2023-04-02T11:24:34.528Z,102564.03
2023-04-02T11:27:14.576Z,102562.16
2023-04-02T11:29:49.213Z,102553.34
2023-04-02T11:32:21.569Z,102555.81
2023-04-02T11:34:56.397Z,102563.66
2023-04-02T11:37:42.731Z,102572.28
2023-04-02T11:40:12.210Z,102575.53
2023-04-02T11:42:41.269Z,102572.84
2023-04-02T11:45:23.168Z,102573.66
2023-04-02T11:48:01.801Z,102583.84
2023-04-02T11:50:33.734Z,102582.88
2023-04-02T11:53:06.672Z,102589.66
2023-04-02T11:55:35.022Z,102582.66
2023-04-02T11:58:07.378Z,102593.06
2023-04-02T12:00:49.159Z,102585.25
2023-04-02T12:03:32.139Z,102591.28
2023-04-02T12:06:13.280Z,102587.72
2023-04-02T12:09:05.533Z,102594.47
2023-04-02T12:11:35.128Z,102596.16
2023-04-02T12:14:06.787Z,102598.69
2023-04-02T12:16:34.818Z,102602.88
2023-04-02T12:19:01.530Z,102608.66
2023-04-02T12:21:29.471Z,102602.50
2023-04-02T12:23:59.191Z,102611.84
2023-04-02T12:26:38.800Z,102614.31
2023-04-02T12:29:26.645Z,102618.59
2023-04-02T12:31:56.674Z,102618.50
2023-04-02T12:34:28.791Z,102613.22
2023-04-02T12:37:04.924Z,102620.06
2023-04-02T12:39:36.519Z,102612.25
2023-04-02T12:42:06.386Z,102613.00
2023-04-02T12:44:32.919Z,102619.94
2023-04-02T12:46:59.630Z,102628.59
2023-04-02T12:49:37.107Z,102623.22
2023-04-02T12:52:10.735Z,102623.03
2023-04-02T12:54:54.043Z,102629.19
2023-04-02T12:57:26.358Z,102630.03
2023-04-02T13:00:19.973Z,102631.69
2023-04-02T13:02:52.500Z,102641.06
2023-04-02T13:05:45.601Z,102642.88
2023-04-02T13:08:18.898Z,102635.84
2023-04-02T13:10:46.111Z,102637.66
2023-04-02T13:13:22.170Z,102629.00
2023-04-02T13:16:01.223Z,102650.72
2023-04-02T13:18:27.710Z,102639.56
2023-04-02T13:20:59.637Z,102636.03
2023-04-02T13:23:33.001Z,102642.03
2023-04-02T13:26:10.897Z,102643.47
2023-04-02T13:28:38.586Z,102638.88
2023-04-02T13:31:05.421Z,102641.38
2023-04-02T13:33:32.021Z,102648.38
2023-04-02T13:36:03.033Z,102647.47
2023-04-02T13:38:29.514Z,102655.31
2023-04-02T13:40:55.943Z,102644.72
2023-04-02T13:43:22.485Z,102655.97
2023-04-02T13:45:51.713Z,102655.97
2023-04-02T13:48:18.501Z,102642.16
2023-04-02T13:50:46.391Z,102645.56
2023-04-02T13:53:26.628Z,102654.94
2023-04-02T13:55:53.674Z,102656.22
2023-04-02T13:58:20.432Z,102650.84
2023-04-02T14:00:47.255Z,102662.81
2023-04-02T14:03:21.870Z,102669.94
2023-04-02T14:06:08.458Z,102659.56
2023-04-02T14:09:05.633Z,102665.63
2023-04-02T14:11:50.786Z,102667.38
2023-04-02T14:14:49.202Z,102671.84
2023-04-02T14:17:35.906Z,102669.19
2023-04-02T14:20:20.197Z,102668.84
2023-04-02T14:22:58.543Z,102673.09
2023-04-02T14:25:56.644Z,102680.78
2023-04-02T14:28:44.790Z,102678.09
2023-04-02T14:34:15.859Z,102681.63
2023-04-02T14:36:53.161Z,102686.84
2023-04-02T14:39:32.233Z,102684.94
2023-04-02T14:42:09.707Z,102683.16
2023-04-02T14:44:52.326Z,102690.00
2023-04-02T14:47:33.667Z,102698.03
2023-04-02T14:50:11.593Z,102693.81
2023-04-02T14:52:41.509Z,102698.03
2023-04-02T14:55:47.212Z,102707.63
2023-04-02T14:58:23.171Z,102706.00
2023-04-02T15:00:58.494Z,102691.97
2023-04-02T15:03:44.178Z,102702.31
2023-04-02T15:06:22.120Z,102709.09
2023-04-02T15:09:10.565Z,102705.56
2023-04-02T15:12:05.963Z,102707.19
2023-04-02T15:14:50.917Z,102706.31
2023-04-02T15:17:22.364Z,102714.16
2023-04-02T15:19:59.018Z,102715.97
2023-04-02T15:22:45.003Z,102717.69
2023-04-02T15:25:19.932Z,102718.59
2023-04-02T15:28:01.725Z,102722.97
2023-04-02T15:30:35.388Z,102722.13
2023-04-02T15:33:20.467Z,102722.91
2023-04-02T15:36:13.370Z,102718.47
2023-04-02T15:38:58.452Z,102733.25
2023-04-02T15:41:53.715Z,102729.94
2023-04-02T15:44:20.212Z,102726.56
2023-04-02T15:46:50.594Z,102736.19
2023-04-02T15:49:57.641Z,102730.84
2023-04-02T15:52:48.966Z,102734.28
2023-04-02T15:55:22.907Z,102735.22
2023-04-02T15:58:20.863Z,102737.00
2023-04-02T16:01:31.693Z,102737.84
2023-04-02T16:04:18.045Z,102726.63
2023-04-02T16:07:00.430Z,102732.75
2023-04-02T16:09:45.013Z,102730.97
2023-04-02T16:12:16.313Z,102741.28
2023-04-02T16:14:46.109Z,102750.03
2023-04-02T16:17:25.278Z,102752.63
2023-04-02T16:20:00.815Z,102752.63
2023-04-02T16:22:30.838Z,102762.22
2023-04-02T16:25:22.952Z,102762.13
2023-04-02T16:28:20.329Z,102761.34
2023-04-02T16:30:53.696Z,102758.81
2023-04-02T16:33:36.854Z,102761.47
2023-04-02T16:36:31.266Z,102761.50
2023-04-02T16:39:19.534Z,102781.53
2023-04-02T16:41:55.011Z,102776.41
2023-04-02T16:44:45.872Z,102779.84
2023-04-02T16:47:29.476Z,102785.88
2023-04-02T16:50:00.972Z,102793.75
2023-04-02T16:52:33.205Z,102786.78
2023-04-02T16:55:31.402Z,102804.16
2023-04-02T16:58:03.037Z,102811.22
2023-04-02T17:00:41.469Z,102809.50
2023-04-02T17:03:45.958Z,102818.47
2023-04-02T17:06:28.484Z,102818.56
2023-04-02T17:09:06.934Z,102819.72
2023-04-02T17:11:49.391Z,102833.03
2023-04-02T17:14:45.498Z,102836.66
2023-04-02T17:17:18.804Z,102842.41
2023-04-02T17:19:45.390Z,102849.38
2023-04-02T17:22:19.477Z,102845.31
2023-04-02T17:24:51.674Z,102844.72
2023-04-02T17:27:39.721Z,102850.16
2023-04-02T17:30:17.338Z,102853.84
2023-04-02T17:32:43.899Z,102860.13
2023-04-02T17:35:18.506Z,102862.91
2023-04-02T17:38:11.362Z,102868.22
2023-04-02T17:40:53.579Z,102872.66
2023-04-02T17:43:47.287Z,102884.06
2023-04-02T17:46:47.283Z,102879.84
2023-04-02T17:49:25.643Z,102882.56
2023-04-02T17:52:00.689Z,102890.47
2023-04-02T17:54:36.031Z,102887.06
2023-04-02T17:57:32.298Z,102897.56
2023-04-02T18:00:31.421Z,102897.66
2023-04-02T18:03:16.520Z,102903.81
2023-04-02T18:05:51.324Z,102908.22
2023-04-02T18:08:31.982Z,102920.41
2023-04-02T18:11:16.419Z,102918.75
2023-04-02T18:14:05.345Z,102923.09
2023-04-02T18:17:01.897Z,102919.72
2023-04-02T18:19:50.061Z,102920.66
2023-04-02T18:22:29.391Z,102931.94
2023-04-02T18:25:20.782Z,102929.41
2023-04-02T18:28:39.124Z,102932.97
2023-04-02T18:31:24.535Z,102940.84
2023-04-02T18:34:13.252Z,102950.38
2023-04-02T18:36:55.285Z,102952.16
2023-04-02T18:39:53.540Z,102954.81
2023-04-02T18:42:58.665Z,102962.63
2023-04-02T18:45:33.020Z,102960.06
2023-04-02T18:48:18.319Z,102970.53
2023-04-02T18:50:46.949Z,102971.41
2023-04-02T18:53:19.022Z,102977.50
2023-04-02T18:55:51.404Z,102985.31
2023-04-02T18:58:39.590Z,102982.75
2023-04-02T19:01:09.836Z,102982.78
2023-04-02T19:03:51.091Z,102983.69
2023-04-02T19:06:26.494Z,102999.25
2023-04-02T19:09:02.804Z,102996.69
2023-04-02T19:11:29.788Z,103012.25
2023-04-02T19:14:01.275Z,103013.16
2023-04-02T19:16:50.825Z,103017.47
2023-04-02T19:19:27.200Z,103020.13
2023-04-02T19:22:06.418Z,103032.22
2023-04-02T19:24:36.329Z,103036.56
2023-04-02T19:27:27.388Z,103033.97
2023-04-02T19:30:10.062Z,103042.63
2023-04-02T19:32:57.718Z,103044.38
2023-04-02T19:35:32.027Z,103045.25
2023-04-02T19:38:22.312Z,103032.34
2023-04-02T19:41:00.550Z,103039.28
2023-04-02T19:43:27.106Z,103044.47
2023-04-02T19:45:54.583Z,103048.78
2023-04-02T19:48:25.816Z,103054.84
2023-04-02T19:50:52.967Z,103054.00
2023-04-02T19:53:19.926Z,103060.06
2023-04-02T19:55:46.603Z,103054.88
2023-04-02T19:58:25.656Z,103067.00
2023-04-02T20:00:52.116Z,103072.19
2023-04-02T20:03:18.583Z,103071.28
2023-04-02T20:05:45.422Z,103067.00
2023-04-02T20:08:12.086Z,103071.31
2023-04-02T20:10:38.954Z,103074.75
2023-04-02T20:13:05.767Z,103083.41
2023-04-02T20:15:32.445Z,103072.22
2023-04-02T20:17:58.906Z,103074.81
2023-04-02T20:20:25.389Z,103080.84
2023-04-02T20:22:51.822Z,103079.16
2023-04-02T20:25:18.376Z,103080.88
2023-04-02T20:27:44.919Z,103087.78
2023-04-02T20:30:11.828Z,103092.97
2023-04-02T20:32:38.477Z,103097.28
2023-04-02T20:35:06.058Z,103097.28
2023-04-02T20:37:32.867Z,103105.03
2023-04-02T20:39:59.395Z,103112.78
2023-04-02T20:42:25.982Z,103115.41
2023-04-02T20:44:52.619Z,103110.22
2023-04-02T20:47:19.430Z,103114.50
2023-04-02T20:49:45.946Z,103118.84
2023-04-02T20:52:12.348Z,103119.72
2023-04-02T20:54:38.783Z,103118.81
2023-04-02T20:57:05.409Z,103124.88
2023-04-02T20:59:32.067Z,103130.03
2023-04-02T21:01:58.563Z,103135.22
2023-04-02T21:04:25.557Z,103135.19
2023-04-02T21:06:56.852Z,103137.78
2023-04-02T21:09:24.021Z,103138.59
2023-04-02T21:11:51.774Z,103141.19
2023-04-02T21:14:18.790Z,103141.22
2023-04-02T21:16:45.386Z,103146.38
2023-04-02T21:19:12.314Z,103157.53
2023-04-02T21:21:40.389Z,103153.25
2023-04-02T21:24:08.803Z,103160.97
2023-04-02T21:26:38.279Z,103159.25
2023-04-02T21:29:05.765Z,103160.09
2023-04-02T21:31:37.527Z,103162.66
2023-04-02T21:34:04.822Z,103169.53
2023-04-02T21:36:34.402Z,103166.09
2023-04-02T21:39:03.976Z,103172.09
2023-04-02T21:41:33.515Z,103172.97
2023-04-02T21:44:01.517Z,103172.09
2023-04-02T21:46:30.390Z,103176.38
2023-04-02T21:49:01.619Z,103172.03
2023-04-02T21:51:30.879Z,103178.94
2023-04-02T21:53:58.418Z,103181.50
2023-04-02T21:56:27.742Z,103178.91
2023-04-02T21:58:54.971Z,103186.63
2023-04-02T22:01:27.667Z,103178.84
2023-04-02T22:03:56.343Z,103173.66
2023-04-02T22:06:24.231Z,103175.41
2023-04-02T22:08:56.786Z,103179.69
2023-04-02T22:11:28.167Z,103181.38
2023-04-02T22:13:55.065Z,103183.94
2023-04-02T22:16:23.893Z,103181.34
2023-04-02T22:18:51.780Z,103188.22
2023-04-02T22:21:19.585Z,103178.72
2023-04-02T22:23:46.501Z,103183.00
2023-04-02T22:26:14.097Z,103186.44
2023-04-02T22:28:40.726Z,103187.25
2023-04-02T22:31:16.104Z,103195.88
2023-04-02T22:33:46.086Z,103187.25
2023-04-02T22:36:14.328Z,103186.34
2023-04-02T22:38:41.132Z,103194.97
2023-04-02T22:41:16.184Z,103190.59
2023-04-02T22:43:44.230Z,103188.84
2023-04-02T22:46:13.043Z,103190.56
2023-04-02T22:48:40.483Z,103197.41
2023-04-02T22:51:08.579Z,103193.91
2023-04-02T22:53:36.616Z,103198.22
2023-04-02T22:56:08.421Z,103199.91
2023-04-02T22:58:36.026Z,103207.63
2023-04-02T23:01:12.498Z,103198.97
2023-04-02T23:03:39.416Z,103208.38
2023-04-02T23:06:09.676Z,103212.69
2023-04-02T23:08:37.125Z,103202.34
2023-04-02T23:11:06.773Z,103207.47
2023-04-02T23:13:33.677Z,103212.59
2023-04-02T23:16:02.325Z,103206.53
2023-04-02T23:18:31.508Z,103211.69
2023-04-02T23:20:58.058Z,103215.09
2023-04-02T23:23:25.301Z,103209.06
2023-04-02T23:26:12.450Z,103207.28
2023-04-02T23:28:42.940Z,103210.72
2023-04-02T23:31:13.233Z,103214.97
2023-04-02T23:33:39.965Z,103221.00
2023-04-02T23:36:09.606Z,103218.38
2023-04-02T23:38:36.421Z,103218.34
2023-04-02T23:41:03.145Z,103217.47
2023-04-02T23:43:29.578Z,103224.31
2023-04-02T23:45:56.104Z,103220.84
2023-04-02T23:48:22.736Z,103232.84
2023-04-02T23:50:49.209Z,103230.22
2023-04-02T23:53:16.721Z,103224.16
2023-04-02T23:55:43.253Z,103228.47
2023-04-02T23:58:09.716Z,103231.84
